Time;durP1;ratioP1;P1;durP2;ratioP2;P2;SDS_P1;SDS_P2;PMS_P1;PMS_P2;Temp;Humidity;BMP_temperature;BMP_pressure;BME280_temperature;BME280_humidity;BME280_pressure;Samples;Min_cycle;Max_cycle;Signal;HPM_P1;HPM_P2
2023/08/01 00:00:07;;;;;;;17.40;16.70;;;19.20;99.90;;;;;;4978685;28;20701;-81
2023/08/01 00:02:35;;;;;;;17.60;16.80;;;19.30;99.90;;;;;;4983945;28;20482;-80
2023/08/01 00:05:06;;;;;;;17.20;16.40;;;19.20;99.90;;;;;;4982127;28;20453;-80
2023/08/01 00:07:34;;;;;;;17.30;16.60;;;19.10;99.90;;;;;;4984165;28;20462;-79
2023/08/01 00:10:06;;;;;;;17.40;16.60;;;19.20;99.90;;;;;;4979266;28;20554;-82
2023/08/01 00:12:34;;;;;;;17.80;16.90;;;19.10;99.90;;;;;;4978484;28;20483;-81
2023/08/01 00:15:02;;;;;;;17.30;16.57;;;19.20;99.90;;;;;;4978290;28;20537;-80
2023/08/01 00:17:30;;;;;;;16.97;16.17;;;19.10;99.90;;;;;;4980835;28;20474;-81
2023/08/01 00:20:43;;;;;;;17.77;16.97;;;19.10;99.90;;;;;;4982691;28;20873;-80
2023/08/01 00:23:11;;;;;;;17.37;16.70;;;19.10;99.90;;;;;;4979670;28;21012;-81
2023/08/01 00:25:40;;;;;;;17.43;16.73;;;19.20;99.90;;;;;;4982049;28;20465;-79
2023/08/01 00:28:08;;;;;;;17.57;16.67;;;19.20;99.90;;;;;;4984335;28;20457;-81
2023/08/01 00:30:36;;;;;;;16.90;16.30;;;19.20;1.00;;;;;;4980523;28;20458;-79
2023/08/01 00:33:04;;;;;;;17.60;16.90;;;19.20;99.90;;;;;;4979729;28;20492;-81
2023/08/01 00:35:33;;;;;;;17.63;16.87;;;19.20;99.90;;;;;;4983687;28;20463;-81
2023/08/01 00:38:02;;;;;;;17.80;16.90;;;19.20;87.00;;;;;;4980759;28;20489;-81
2023/08/01 00:40:31;;;;;;;17.60;16.80;;;19.20;99.90;;;;;;4981231;28;20577;-79
2023/08/01 00:42:59;;;;;;;17.53;16.67;;;19.10;14.60;;;;;;4979115;28;20473;-81
2023/08/01 00:45:28;;;;;;;17.40;16.80;;;19.20;1.00;;;;;;5002231;28;20462;-81
2023/08/01 00:47:57;;;;;;;16.97;16.37;;;19.20;1.00;;;;;;4988543;28;20469;-81
2023/08/01 00:50:25;;;;;;;17.40;16.67;;;19.20;99.90;;;;;;4988806;28;20469;-80
2023/08/01 00:52:53;;;;;;;17.67;16.77;;;19.20;99.90;;;;;;4983972;28;20474;-81
2023/08/01 00:55:23;;;;;;;17.60;16.80;;;19.30;1.00;;;;;;4980334;28;20460;-82
2023/08/01 00:57:53;;;;;;;17.53;16.83;;;19.30;99.90;;;;;;4983003;28;20459;-82
2023/08/01 01:00:21;;;;;;;16.80;16.13;;;19.30;99.90;;;;;;4998606;28;20979;-82
2023/08/01 01:02:50;;;;;;;17.27;16.27;;;19.30;99.90;;;;;;4982006;28;20488;-81
2023/08/01 01:05:25;;;;;;;16.80;16.20;;;19.20;43.10;;;;;;4983816;28;20454;-82
2023/08/01 01:07:54;;;;;;;17.27;16.57;;;19.10;1.00;;;;;;4986310;28;20581;-82
2023/08/01 01:10:24;;;;;;;18.37;17.37;;;19.10;31.50;;;;;;4984371;28;20497;-82
2023/08/01 01:12:52;;;;;;;17.70;17.00;;;19.10;1.00;;;;;;4980085;28;21154;-82
2023/08/01 01:15:20;;;;;;;17.27;16.33;;;19.10;1.00;;;;;;4979843;28;20459;-83
2023/08/01 01:17:48;;;;;;;17.13;16.50;;;19.00;17.10;;;;;;4984795;28;20988;-83
2023/08/01 01:20:22;;;;;;;17.23;16.50;;;19.10;99.90;;;;;;4983454;28;20482;-82
2023/08/01 01:22:53;;;;;;;17.77;16.97;;;19.00;1.00;;;;;;4983039;28;20486;-83
2023/08/01 01:25:22;;;;;;;17.10;16.40;;;19.00;99.90;;;;;;4983303;28;21011;-83
2023/08/01 01:27:52;;;;;;;17.10;16.20;;;19.00;99.90;;;;;;5003457;28;20451;-82
2023/08/01 01:30:21;;;;;;;17.00;16.10;;;18.90;1.00;;;;;;4980410;28;20454;-80
2023/08/01 01:32:50;;;;;;;16.90;16.30;;;18.90;1.00;;;;;;4978136;28;20470;-82
2023/08/01 01:35:18;;;;;;;18.07;17.17;;;18.90;99.90;;;;;;4984885;28;20454;-81
2023/08/01 01:37:46;;;;;;;17.60;16.80;;;18.80;99.90;;;;;;4984105;28;21015;-81
2023/08/01 01:40:16;;;;;;;17.33;16.50;;;18.80;1.00;;;;;;4982995;28;21283;-81
2023/08/01 01:42:45;;;;;;;18.20;17.40;;;18.80;1.00;;;;;;4985771;28;21163;-81
2023/08/01 01:45:13;;;;;;;16.83;16.17;;;18.80;1.00;;;;;;4984872;28;20466;-81
2023/08/01 01:47:41;;;;;;;16.93;16.13;;;18.80;1.00;;;;;;4980798;28;20545;-81
2023/08/01 01:50:10;;;;;;;17.43;16.53;;;18.70;1.00;;;;;;4981058;28;20480;-81
2023/08/01 01:52:38;;;;;;;17.77;16.97;;;18.80;99.90;;;;;;4984050;28;20470;-81
2023/08/01 01:55:07;;;;;;;17.97;17.07;;;18.80;1.00;;;;;;4983250;28;20443;-81
2023/08/01 01:57:37;;;;;;;17.20;16.43;;;18.80;1.00;;;;;;4983437;28;20463;-82
2023/08/01 02:00:05;;;;;;;17.23;16.53;;;18.80;1.00;;;;;;4981733;28;20475;-82
2023/08/01 02:02:34;;;;;;;17.10;16.40;;;18.80;1.00;;;;;;4983313;28;20470;-82
2023/08/01 02:05:03;;;;;;;17.80;17.00;;;18.70;99.90;;;;;;4975844;28;20968;-82
2023/08/01 02:07:33;;;;;;;17.30;16.60;;;18.70;99.90;;;;;;4981893;28;20473;-81
2023/08/01 02:10:01;;;;;;;17.27;16.37;;;18.70;1.00;;;;;;4985155;28;20512;-82
2023/08/01 02:12:31;;;;;;;17.93;17.13;;;18.70;99.90;;;;;;4983785;28;21185;-82
2023/08/01 02:15:01;;;;;;;17.53;16.83;;;18.70;1.00;;;;;;4984574;28;20513;-81
2023/08/01 02:17:29;;;;;;;17.73;16.93;;;18.70;1.00;;;;;;4981736;28;20481;-81
2023/08/01 02:19:57;;;;;;;17.20;16.43;;;18.70;99.90;;;;;;4980425;28;20822;-81
2023/08/01 02:22:26;;;;;;;18.10;17.40;;;18.80;99.90;;;;;;4977696;28;20484;-82
2023/08/01 02:24:54;;;;;;;18.00;17.20;;;18.80;1.00;;;;;;4980224;28;20694;-82
2023/08/01 02:27:22;;;;;;;17.33;16.43;;;18.80;1.00;;;;;;4983978;28;20521;-82
2023/08/01 02:29:50;;;;;;;17.10;16.30;;;18.80;1.00;;;;;;4981485;28;20454;-84
2023/08/01 02:32:20;;;;;;;17.17;16.57;;;18.80;99.90;;;;;;4980266;28;20537;-83
2023/08/01 02:34:48;;;;;;;18.00;17.20;;;18.80;1.00;;;;;;4981863;28;20527;-82
2023/08/01 02:37:17;;;;;;;17.40;16.70;;;18.80;1.00;;;;;;4978718;28;20842;-83
2023/08/01 02:39:45;;;;;;;17.17;16.57;;;18.80;99.90;;;;;;4979423;28;20466;-83
2023/08/01 02:42:13;;;;;;;17.53;16.60;;;18.80;1.00;;;;;;4977933;28;20788;-84
2023/08/01 02:44:41;;;;;;;18.07;17.20;;;18.90;1.00;;;;;;4979415;28;20482;-81
2023/08/01 02:47:09;;;;;;;17.23;16.37;;;18.90;99.90;;;;;;4980489;28;20548;-82
2023/08/01 02:49:39;;;;;;;17.73;17.03;;;18.90;99.90;;;;;;4984269;28;20547;-81
2023/08/01 02:52:08;;;;;;;17.80;17.00;;;19.00;99.90;;;;;;4983523;28;20466;-83
2023/08/01 02:54:36;;;;;;;17.63;16.50;;;19.00;99.90;;;;;;4979545;28;20515;-83
2023/08/01 02:57:04;;;;;;;17.37;16.50;;;19.00;13.90;;;;;;4995584;28;20558;-82
2023/08/01 02:59:33;;;;;;;16.77;15.97;;;19.00;1.00;;;;;;4977642;28;20485;-85
2023/08/01 03:02:03;;;;;;;17.10;16.10;;;19.00;1.00;;;;;;4978340;28;20472;-85
2023/08/01 03:04:31;;;;;;;16.77;16.00;;;19.00;1.00;;;;;;4980277;28;20475;-86
2023/08/01 03:07:15;;;;;;;16.47;15.63;;;19.00;1.00;;;;;;4981019;28;20465;-86
2023/08/01 03:09:43;;;;;;;17.23;16.20;;;19.10;99.90;;;;;;4981040;28;20450;-86
2023/08/01 03:12:12;;;;;;;16.07;15.37;;;19.10;99.90;;;;;;4975993;28;20826;-85
2023/08/01 03:14:41;;;;;;;16.33;15.57;;;19.00;1.00;;;;;;4976108;28;20498;-87
2023/08/01 03:17:09;;;;;;;16.20;15.50;;;19.00;1.00;;;;;;4977527;28;20459;-87
2023/08/01 03:19:39;;;;;;;16.07;15.40;;;19.00;18.50;;;;;;4979029;28;20485;-87
2023/08/01 03:22:07;;;;;;;16.13;15.43;;;18.90;1.00;;;;;;4978592;28;20462;-85
2023/08/01 03:24:37;;;;;;;16.87;16.03;;;18.90;75.80;;;;;;4977141;28;20873;-86
2023/08/01 03:27:06;;;;;;;16.50;15.50;;;18.90;1.00;;;;;;4990188;28;20462;-86
2023/08/01 03:29:34;;;;;;;16.87;15.97;;;19.00;1.00;;;;;;4977223;28;20526;-86
2023/08/01 03:32:02;;;;;;;16.90;16.00;;;19.00;99.90;;;;;;4975070;28;20506;-85
2023/08/01 03:34:30;;;;;;;17.03;15.97;;;19.10;99.90;;;;;;4993387;28;20494;-85
2023/08/01 03:36:59;;;;;;;16.53;15.67;;;19.10;1.00;;;;;;4977426;28;20482;-85
2023/08/01 03:39:27;;;;;;;16.00;15.40;;;19.10;99.90;;;;;;4980533;28;20531;-86
2023/08/01 03:41:57;;;;;;;17.17;16.17;;;19.10;99.90;;;;;;4978444;28;20469;-85
2023/08/01 03:44:25;;;;;;;16.23;15.50;;;19.20;1.00;;;;;;4979892;28;20573;-84
2023/08/01 03:46:53;;;;;;;17.00;15.97;;;19.20;1.00;;;;;;4978108;28;20927;-86
2023/08/01 03:49:22;;;;;;;16.50;15.80;;;19.20;1.00;;;;;;4976955;28;20463;-87
2023/08/01 03:51:50;;;;;;;16.00;15.40;;;19.10;99.90;;;;;;4978046;28;20458;-86
2023/08/01 03:54:18;;;;;;;16.60;15.87;;;19.20;96.00;;;;;;4979802;28;21039;-86
2023/08/01 03:56:46;;;;;;;16.43;15.67;;;19.10;9.60;;;;;;4979396;28;21058;-86
2023/08/01 03:59:16;;;;;;;16.60;15.80;;;19.10;99.90;;;;;;4974243;28;20641;-86
2023/08/01 04:01:45;;;;;;;16.27;15.60;;;19.00;99.90;;;;;;4969010;28;20532;-86
2023/08/01 04:04:13;;;;;;;16.40;15.70;;;19.10;99.90;;;;;;4979352;28;22183;-86
2023/08/01 04:06:41;;;;;;;16.30;15.57;;;19.10;69.60;;;;;;4977707;28;20476;-86
2023/08/01 04:09:10;;;;;;;16.33;15.63;;;19.00;99.90;;;;;;4982378;28;20458;-86
2023/08/01 04:11:38;;;;;;;17.30;16.30;;;18.90;94.20;;;;;;4983547;28;20462;-83
2023/08/01 04:14:06;;;;;;;16.90;16.10;;;18.90;99.90;;;;;;4986089;28;20757;-85
2023/08/01 04:16:38;;;;;;;16.67;15.87;;;18.90;16.40;;;;;;4983955;28;20547;-85
2023/08/01 04:19:06;;;;;;;16.80;16.13;;;18.80;1.00;;;;;;4982173;28;20455;-86
2023/08/01 04:21:35;;;;;;;16.03;15.43;;;18.80;99.90;;;;;;4978993;28;21023;-85
2023/08/01 04:24:03;;;;;;;17.27;16.57;;;18.70;1.00;;;;;;4981564;28;20926;-85
2023/08/01 04:26:31;;;;;;;16.77;15.97;;;18.70;1.00;;;;;;4987691;28;20480;-87
2023/08/01 04:29:00;;;;;;;17.13;16.33;;;18.60;1.00;;;;;;4997183;28;20482;-84
2023/08/01 04:31:28;;;;;;;17.10;16.30;;;18.60;99.90;;;;;;4984921;28;20545;-85
2023/08/01 04:33:57;;;;;;;17.57;16.07;;;18.60;99.90;;;;;;4984104;28;20489;-85
2023/08/01 04:36:26;;;;;;;16.80;16.20;;;18.60;1.00;;;;;;4985355;28;20474;-86
2023/08/01 04:38:55;;;;;;;17.40;16.50;;;18.50;1.00;;;;;;4997222;28;20466;-86
2023/08/01 04:41:23;;;;;;;17.60;16.83;;;18.50;99.90;;;;;;4982874;28;20486;-86
2023/08/01 04:43:51;;;;;;;17.30;16.40;;;18.40;78.00;;;;;;4982792;28;20564;-86
2023/08/01 04:46:20;;;;;;;17.07;16.17;;;18.40;61.60;;;;;;4984137;28;20517;-87
2023/08/01 04:48:48;;;;;;;16.80;15.97;;;18.40;1.00;;;;;;4980448;28;20474;-87
2023/08/01 04:51:18;;;;;;;17.23;16.43;;;18.50;99.90;;;;;;4983288;28;20755;-85
2023/08/01 04:53:46;;;;;;;16.70;16.00;;;18.50;99.90;;;;;;4981112;28;20609;-88
2023/08/01 04:56:15;;;;;;;16.20;15.60;;;18.50;1.00;;;;;;4979211;28;20470;-87
2023/08/01 04:58:43;;;;;;;16.77;15.97;;;18.50;99.90;;;;;;4979403;28;20461;-85
2023/08/01 05:01:11;;;;;;;16.73;15.90;;;18.60;99.90;;;;;;4977977;28;20486;-86
2023/08/01 05:03:39;;;;;;;18.00;17.17;;;18.60;99.90;;;;;;4981260;28;20505;-86
2023/08/01 05:06:08;;;;;;;17.90;16.90;;;18.70;1.00;;;;;;4982426;28;20466;-87
2023/08/01 05:08:38;;;;;;;17.37;16.50;;;18.70;1.00;;;;;;4981364;28;20995;-86
2023/08/01 05:11:06;;;;;;;17.17;16.40;;;18.80;99.90;;;;;;4982615;28;20447;-87
2023/08/01 05:13:34;;;;;;;18.47;17.27;;;18.80;69.10;;;;;;4975300;28;20493;-86
2023/08/01 05:16:05;;;;;;;17.90;16.90;;;18.80;99.90;;;;;;4969313;28;20466;-86
2023/08/01 05:18:34;;;;;;;17.73;16.80;;;18.80;99.90;;;;;;4979296;28;20466;-86
2023/08/01 05:21:02;;;;;;;17.47;16.60;;;18.80;99.90;;;;;;4980939;28;20998;-85
2023/08/01 05:23:31;;;;;;;17.37;16.67;;;18.70;99.90;;;;;;4978701;28;20470;-84
2023/08/01 05:26:00;;;;;;;16.90;16.20;;;18.70;1.00;;;;;;4982862;28;20461;-85
2023/08/01 05:28:29;;;;;;;17.10;16.40;;;18.80;1.00;;;;;;4980849;28;20490;-86
2023/08/01 05:30:58;;;;;;;17.27;16.37;;;18.90;1.20;;;;;;4977879;28;20546;-85
2023/08/01 05:33:26;;;;;;;17.47;16.57;;;18.90;1.00;;;;;;4978740;28;20569;-86
2023/08/01 05:35:54;;;;;;;18.17;17.27;;;19.00;1.00;;;;;;4979155;28;20520;-85
2023/08/01 05:38:23;;;;;;;17.93;17.00;;;19.00;1.00;;;;;;4980829;28;20457;-83
2023/08/01 05:40:51;;;;;;;17.63;16.63;;;19.10;1.00;;;;;;4980410;28;20581;-85
2023/08/01 05:43:21;;;;;;;17.70;16.80;;;19.00;99.90;;;;;;4977903;28;20475;-85
2023/08/01 05:45:49;;;;;;;18.20;17.30;;;19.00;1.00;;;;;;4980021;28;20462;-88
2023/08/01 05:48:22;;;;;;;18.17;17.27;;;19.00;1.00;;;;;;4980910;28;20521;-87
2023/08/01 05:50:50;;;;;;;17.40;16.70;;;19.00;1.00;;;;;;4980496;28;20454;-86
2023/08/01 05:53:19;;;;;;;17.40;16.70;;;19.00;1.00;;;;;;4979014;28;20482;-84
2023/08/01 05:55:47;;;;;;;18.03;16.93;;;19.00;1.00;;;;;;4979076;28;20450;-84
2023/08/01 05:58:15;;;;;;;18.70;17.60;;;18.90;99.90;;;;;;4979446;28;20458;-83
2023/08/01 06:00:45;;;;;;;18.57;17.60;;;19.00;99.90;;;;;;4975272;28;20462;-83
2023/08/01 06:03:13;;;;;;;19.20;18.10;;;19.00;99.90;;;;;;4971244;28;20489;-83
2023/08/01 06:05:41;;;;;;;18.57;17.40;;;19.00;99.90;;;;;;4974983;28;20466;-83
2023/08/01 06:08:10;;;;;;;18.23;17.40;;;19.00;99.90;;;;;;4974791;28;20463;-82
2023/08/01 06:10:38;;;;;;;18.87;17.77;;;19.10;32.20;;;;;;4976381;28;20450;-82
2023/08/01 06:13:06;;;;;;;18.13;17.33;;;19.00;99.90;;;;;;4980123;28;20840;-82
2023/08/01 06:15:35;;;;;;;18.07;16.97;;;19.00;1.00;;;;;;4980710;28;20611;-81
2023/08/01 06:18:04;;;;;;;17.90;17.10;;;19.00;1.00;;;;;;4985945;28;20454;-84
2023/08/01 06:20:33;;;;;;;18.10;17.30;;;18.90;1.00;;;;;;4980702;28;20578;-81
2023/08/01 06:23:01;;;;;;;18.50;17.60;;;18.90;8.50;;;;;;4979736;28;20504;-83
2023/08/01 06:25:29;;;;;;;18.27;17.40;;;18.90;1.00;;;;;;4979878;28;20546;-84
2023/08/01 06:28:01;;;;;;;18.53;17.67;;;18.90;1.00;;;;;;4983006;28;20492;-83
2023/08/01 06:30:29;;;;;;;19.50;18.30;;;18.70;1.00;;;;;;4981369;28;20816;-84
2023/08/01 06:32:57;;;;;;;19.00;18.13;;;18.80;1.00;;;;;;4982960;28;20470;-83
2023/08/01 06:35:27;;;;;;;19.50;18.60;;;18.90;1.00;;;;;;4980244;28;20470;-84
2023/08/01 06:37:55;;;;;;;18.90;18.00;;;18.90;79.20;;;;;;4979159;28;20458;-82
2023/08/01 06:40:25;;;;;;;19.07;18.13;;;18.80;1.00;;;;;;4981356;28;20474;-81
2023/08/01 06:42:53;;;;;;;19.00;18.00;;;18.80;1.00;;;;;;4980771;28;20601;-82
2023/08/01 06:45:21;;;;;;;18.83;17.83;;;18.70;1.00;;;;;;4980587;28;20454;-81
2023/08/01 06:47:49;;;;;;;19.47;18.50;;;18.70;7.50;;;;;;4977455;28;20979;-81
2023/08/01 06:50:17;;;;;;;19.17;18.27;;;18.70;1.00;;;;;;4980648;28;20466;-82
2023/08/01 06:52:47;;;;;;;19.37;18.30;;;18.70;1.00;;;;;;4980185;28;20490;-84
2023/08/01 06:55:15;;;;;;;19.33;18.43;;;18.70;1.00;;;;;;4981491;28;20467;-80
2023/08/01 06:57:43;;;;;;;19.70;18.43;;;18.80;1.00;;;;;;4978644;28;20482;-82
2023/08/01 07:00:12;;;;;;;20.13;19.03;;;18.80;1.00;;;;;;4974855;28;20454;-83
2023/08/01 07:02:41;;;;;;;19.37;18.47;;;18.80;1.00;;;;;;4981122;28;20512;-82
2023/08/01 07:05:09;;;;;;;19.93;18.73;;;18.90;1.00;;;;;;4982196;28;20448;-80
2023/08/01 07:07:37;;;;;;;19.20;18.20;;;18.90;99.90;;;;;;4980133;28;20454;-81
2023/08/01 07:10:09;;;;;;;19.33;18.13;;;18.80;1.00;;;;;;4980728;28;20467;-82
2023/08/01 07:12:37;;;;;;;20.00;18.80;;;18.70;99.90;;;;;;4980383;28;20486;-80
2023/08/01 07:15:07;;;;;;;19.83;18.73;;;18.60;30.90;;;;;;4978928;28;20450;-81
2023/08/01 07:17:59;;;;;;;19.50;18.50;;;18.70;99.90;;;;;;4980375;28;20467;-82
2023/08/01 07:20:59;;;;;;;19.60;18.60;;;18.70;1.00;;;;;;4999591;28;20465;-82
2023/08/01 07:23:27;;;;;;;19.37;18.33;;;18.60;99.90;;;;;;4977269;28;20505;-83
2023/08/01 07:25:57;;;;;;;18.83;17.93;;;18.60;1.00;;;;;;4980757;28;20830;-81
2023/08/01 07:28:27;;;;;;;19.37;18.47;;;18.50;99.90;;;;;;4981826;28;20468;-83
2023/08/01 07:31:07;;;;;;;18.13;17.40;;;18.60;1.00;;;;;;4980506;28;20463;-81
2023/08/01 07:33:36;;;;;;;18.23;17.33;;;18.50;99.90;;;;;;4997824;28;20481;-82
2023/08/01 07:36:07;;;;;;;19.67;17.80;;;18.40;99.90;;;;;;4984913;28;20458;-81
2023/08/01 07:39:19;;;;;;;17.57;16.87;;;18.50;99.90;;;;;;4981636;28;20462;-83
2023/08/01 07:41:48;;;;;;;18.23;17.33;;;18.40;14.00;;;;;;4980603;28;21018;-82
2023/08/01 07:44:16;;;;;;;17.80;17.00;;;18.30;1.00;;;;;;4976277;28;20486;-84
2023/08/01 07:46:45;;;;;;;17.73;16.90;;;18.40;1.00;;;;;;4980489;28;20466;-82
2023/08/01 07:49:16;;;;;;;17.87;17.03;;;18.40;99.90;;;;;;4987481;28;20967;-80
2023/08/01 07:51:52;;;;;;;16.90;16.30;;;18.30;99.90;;;;;;4985782;28;20558;-80
2023/08/01 07:54:20;;;;;;;16.97;16.27;;;18.30;99.90;;;;;;4984772;28;20483;-82
2023/08/01 07:56:56;;;;;;;17.23;16.43;;;18.20;99.90;;;;;;4987404;28;20470;-82
2023/08/01 07:59:24;;;;;;;17.50;16.70;;;18.20;1.00;;;;;;4985521;28;20481;-83
2023/08/01 08:06:15;;;;;;;16.83;16.20;;;18.20;1.00;;;;;;4907026;29;20662;-82
2023/08/01 08:19:17;;;;;;;16.47;15.77;;;17.90;1.00;;;;;;5128793;23;20607;-83
2023/08/01 08:22:42;;;;;;;17.17;16.40;;;17.70;1.00;;;;;;4995123;28;20463;-83
2023/08/01 08:25:19;;;;;;;17.43;16.53;;;17.90;1.00;;;;;;4993317;28;20480;-84
2023/08/01 08:28:17;;;;;;;16.87;16.17;;;18.00;1.00;;;;;;4977083;28;20445;-84
2023/08/01 08:31:33;;;;;;;16.67;16.00;;;18.10;1.00;;;;;;4972243;28;20454;-82
2023/08/01 08:34:37;;;;;;;17.07;16.37;;;18.10;1.00;;;;;;4988705;28;20527;-82
2023/08/01 08:37:14;;;;;;;16.87;16.17;;;18.10;1.00;;;;;;4992208;28;20569;-83
2023/08/01 08:39:54;;;;;;;16.50;15.90;;;18.20;1.00;;;;;;4993277;28;20555;-82
2023/08/01 08:43:10;;;;;;;17.07;16.33;;;18.10;1.00;;;;;;4993983;28;20491;-81
2023/08/01 08:45:42;;;;;;;16.67;16.07;;;18.20;1.00;;;;;;4970726;28;20478;-82
2023/08/01 08:48:13;;;;;;;16.83;16.17;;;18.20;1.00;;;;;;4992362;28;20585;-81
2023/08/01 08:51:01;;;;;;;17.73;17.00;;;18.30;1.00;;;;;;4992118;28;20505;-81
2023/08/01 08:53:39;;;;;;;17.37;16.47;;;18.20;1.00;;;;;;4976613;28;20537;-81
2023/08/01 08:59:54;;;;;;;16.30;15.70;;;18.20;1.00;;;;;;4994202;28;20454;-81
2023/08/01 09:02:25;;;;;;;17.00;16.20;;;18.30;1.00;;;;;;4972583;28;20485;-81
2023/08/01 09:04:53;;;;;;;16.30;15.60;;;18.20;1.00;;;;;;4992730;28;20532;-80
2023/08/01 09:07:59;;;;;;;16.00;15.40;;;18.30;1.00;;;;;;4974314;28;20451;-81
2023/08/01 09:10:31;;;;;;;16.50;15.90;;;18.30;1.00;;;;;;4988069;28;20465;-82
2023/08/01 09:13:09;;;;;;;16.20;15.50;;;18.30;1.00;;;;;;4985138;28;20476;-81
2023/08/01 09:15:44;;;;;;;15.90;15.30;;;18.30;1.00;;;;;;4982763;28;20519;-81
2023/08/01 09:18:15;;;;;;;16.03;15.33;;;18.30;1.00;;;;;;4986722;28;20478;-82
2023/08/01 09:20:53;;;;;;;16.50;15.70;;;18.50;1.00;;;;;;4983619;28;20461;-82
2023/08/01 09:23:27;;;;;;;16.37;15.73;;;18.50;1.00;;;;;;4984312;28;20561;-82
2023/08/01 09:25:56;;;;;;;15.50;15.00;;;18.50;1.00;;;;;;4983953;28;20461;-81
2023/08/01 09:28:32;;;;;;;15.20;14.60;;;18.50;1.00;;;;;;4985718;28;20450;-82
2023/08/01 09:31:00;;;;;;;15.67;15.17;;;18.50;1.00;;;;;;4984409;28;20446;-82
2023/08/01 09:33:39;;;;;;;15.77;15.20;;;18.60;1.00;;;;;;4984591;28;20610;-82
2023/08/01 09:36:13;;;;;;;15.30;14.80;;;18.60;1.00;;;;;;4983254;28;20481;-82
2023/08/01 09:38:45;;;;;;;15.20;14.70;;;18.60;1.00;;;;;;4983987;28;20464;-80
2023/08/01 09:41:22;;;;;;;15.20;14.70;;;18.60;1.00;;;;;;4983442;28;20475;-82
2023/08/01 09:43:56;;;;;;;14.80;14.40;;;18.60;1.00;;;;;;4983999;28;20517;-83
2023/08/01 09:46:29;;;;;;;14.70;14.30;;;18.60;1.00;;;;;;4984266;28;20550;-82
2023/08/01 09:49:08;;;;;;;14.73;14.33;;;18.70;1.00;;;;;;4982369;28;20553;-82
2023/08/01 09:51:48;;;;;;;15.00;14.50;;;18.70;1.00;;;;;;4985491;28;20982;-81
2023/08/01 09:54:21;;;;;;;14.80;14.40;;;18.70;1.00;;;;;;4983609;28;20469;-82
2023/08/01 09:56:52;;;;;;;14.50;14.10;;;18.70;1.00;;;;;;4986066;28;20454;-82
2023/08/01 09:59:22;;;;;;;14.90;14.50;;;18.80;1.00;;;;;;4983846;28;20636;-81
2023/08/01 10:01:52;;;;;;;14.70;14.10;;;18.90;1.00;;;;;;4984251;28;20546;-82
2023/08/01 10:04:24;;;;;;;14.60;14.20;;;18.90;1.00;;;;;;4984453;28;20485;-81
2023/08/01 10:06:59;;;;;;;14.70;14.30;;;18.80;1.00;;;;;;4984262;28;22372;-82
2023/08/01 10:09:31;;;;;;;14.80;14.30;;;18.90;1.00;;;;;;4983479;28;20481;-81
2023/08/01 10:12:00;;;;;;;14.67;14.27;;;18.90;1.00;;;;;;4984468;28;20486;-81
2023/08/01 10:14:29;;;;;;;15.67;14.90;;;19.00;1.00;;;;;;4982725;28;21990;-81
2023/08/01 10:16:59;;;;;;;14.83;14.33;;;19.00;1.00;;;;;;4983145;28;20451;-81
2023/08/01 10:19:28;;;;;;;14.30;13.90;;;19.10;1.00;;;;;;4984924;28;20454;-81
2023/08/01 10:21:57;;;;;;;14.10;13.70;;;19.10;1.00;;;;;;4984703;28;20789;-81
2023/08/01 10:24:31;;;;;;;14.60;14.10;;;19.10;1.00;;;;;;4982291;28;20501;-81
2023/08/01 10:27:11;;;;;;;14.30;13.90;;;19.20;1.00;;;;;;4968088;28;21115;-82
2023/08/01 10:29:40;;;;;;;14.60;14.20;;;19.30;1.00;;;;;;4981940;28;21044;-82
2023/08/01 10:32:08;;;;;;;14.90;14.50;;;19.30;1.00;;;;;;4984481;28;20984;-81
2023/08/01 10:34:51;;;;;;;14.53;14.13;;;19.30;1.00;;;;;;4984267;28;20581;-82
2023/08/01 10:37:19;;;;;;;14.60;14.20;;;19.30;1.00;;;;;;4968177;28;20456;-81
2023/08/01 10:40:00;;;;;;;14.80;14.40;;;19.40;1.00;;;;;;4987718;28;20975;-82
2023/08/01 10:42:42;;;;;;;14.73;14.23;;;19.50;1.00;;;;;;4987477;28;20458;-82
2023/08/01 10:45:30;;;;;;;14.20;13.80;;;19.60;1.00;;;;;;4985582;28;20454;-82
2023/08/01 10:48:11;;;;;;;14.73;14.33;;;19.80;1.00;;;;;;4985581;28;20893;-82
2023/08/01 10:50:40;;;;;;;15.10;14.60;;;19.80;1.00;;;;;;4984777;28;21204;-82
2023/08/01 10:53:12;;;;;;;14.70;14.30;;;19.90;1.00;;;;;;4984782;28;20474;-84
2023/08/01 10:55:43;;;;;;;14.87;14.47;;;19.90;1.00;;;;;;4979417;28;20462;-84
2023/08/01 10:58:12;;;;;;;15.47;15.00;;;19.90;99.90;;;;;;4983469;28;20470;-81
2023/08/01 11:00:40;;;;;;;15.40;15.00;;;19.80;99.90;;;;;;4981489;28;20462;-83
2023/08/01 11:03:09;;;;;;;15.40;14.90;;;19.60;1.00;;;;;;4983086;28;20976;-84
2023/08/01 11:05:37;;;;;;;15.60;14.90;;;19.60;1.00;;;;;;4982219;28;20676;-81
2023/08/01 11:08:06;;;;;;;15.60;15.10;;;19.70;1.00;;;;;;4979102;28;20458;-82
2023/08/01 11:10:34;;;;;;;15.50;15.10;;;19.80;1.00;;;;;;4978687;28;20454;-84
2023/08/01 11:13:04;;;;;;;15.40;14.90;;;19.80;15.60;;;;;;4964064;28;21104;-84
2023/08/01 11:15:33;;;;;;;14.93;14.53;;;19.70;1.00;;;;;;4979648;28;20496;-83
2023/08/01 11:18:01;;;;;;;15.30;14.70;;;19.80;99.90;;;;;;4983858;28;20927;-84
2023/08/01 11:20:29;;;;;;;15.27;14.87;;;19.90;99.90;;;;;;4985439;28;20503;-82
2023/08/01 11:23:00;;;;;;;15.70;15.20;;;20.10;1.00;;;;;;4986752;28;20470;-80
2023/08/01 11:25:45;;;;;;;15.50;15.00;;;20.10;1.00;;;;;;4992631;28;20497;-82
2023/08/01 11:28:18;;;;;;;15.30;14.80;;;20.20;1.00;;;;;;4993998;28;20468;-84
2023/08/01 11:30:49;;;;;;;15.43;14.93;;;20.30;99.90;;;;;;4992666;28;20462;-82
2023/08/01 11:33:20;;;;;;;16.30;15.67;;;20.30;1.00;;;;;;4974126;28;20490;-82
2023/08/01 11:35:53;;;;;;;15.13;14.73;;;20.30;1.00;;;;;;4988904;28;20458;-81
2023/08/01 11:38:23;;;;;;;15.70;15.10;;;20.30;99.90;;;;;;4992355;28;20457;-82
2023/08/01 11:40:52;;;;;;;15.97;15.47;;;20.30;99.90;;;;;;4976672;28;20466;-83
2023/08/01 11:43:23;;;;;;;16.27;15.43;;;20.40;99.90;;;;;;4993077;28;20888;-81
2023/08/01 11:45:54;;;;;;;15.40;14.97;;;20.50;64.70;;;;;;4993613;28;20446;-83
2023/08/01 11:48:28;;;;;;;15.40;14.90;;;20.40;30.00;;;;;;4990791;28;20454;-83
2023/08/01 11:50:58;;;;;;;15.27;14.80;;;20.40;1.00;;;;;;4992671;28;20533;-83
2023/08/01 11:53:27;;;;;;;15.60;15.10;;;20.40;1.00;;;;;;4973668;28;20498;-81
2023/08/01 11:55:57;;;;;;;15.67;15.13;;;20.50;1.00;;;;;;4990558;28;20456;-83
2023/08/01 11:58:48;;;;;;;15.43;15.03;;;20.50;1.00;;;;;;4991877;28;20463;-84
2023/08/01 12:01:20;;;;;;;15.50;14.70;;;20.60;1.00;;;;;;4988532;28;20485;-79
2023/08/01 12:03:52;;;;;;;15.20;14.80;;;20.70;1.00;;;;;;4991954;28;20489;-83
2023/08/01 12:06:29;;;;;;;15.03;14.57;;;20.90;1.00;;;;;;4991244;28;21108;-81
2023/08/01 12:09:07;;;;;;;15.40;15.00;;;21.00;1.00;;;;;;4990672;28;20453;-82
2023/08/01 12:11:38;;;;;;;15.60;15.00;;;21.10;1.00;;;;;;4992495;28;20446;-84
2023/08/01 12:14:10;;;;;;;15.40;15.00;;;21.10;1.00;;;;;;4991263;28;20478;-82
2023/08/01 12:16:46;;;;;;;15.30;14.90;;;21.10;1.00;;;;;;4992356;28;20485;-83
2023/08/01 12:19:19;;;;;;;16.00;15.50;;;21.00;99.90;;;;;;4988482;28;20465;-81
2023/08/01 12:21:48;;;;;;;16.00;15.50;;;21.10;1.00;;;;;;4989918;28;20462;-82
2023/08/01 12:24:16;;;;;;;15.50;14.90;;;21.20;1.00;;;;;;4992252;28;20998;-81
2023/08/01 12:26:44;;;;;;;15.00;14.50;;;21.30;1.00;;;;;;4990053;28;20804;-82
2023/08/01 12:29:14;;;;;;;15.73;15.03;;;21.30;99.90;;;;;;4989609;28;20563;-85
2023/08/01 12:31:43;;;;;;;15.87;15.37;;;21.30;99.90;;;;;;4971540;28;20458;-83
2023/08/01 12:34:11;;;;;;;15.10;14.70;;;21.30;99.90;;;;;;4988881;28;20478;-84
2023/08/01 12:36:47;;;;;;;16.00;15.30;;;21.30;99.90;;;;;;4973673;28;20573;-83
2023/08/01 12:42:20;;;;;;;16.90;16.10;;;21.40;99.90;;;;;;4989015;28;20484;-81
2023/08/01 12:45:05;;;;;;;16.03;15.40;;;21.50;99.90;;;;;;4988197;28;20491;-81
2023/08/01 12:47:44;;;;;;;16.50;15.90;;;21.50;99.90;;;;;;4990591;28;20896;-80
2023/08/01 12:50:17;;;;;;;16.87;16.10;;;21.40;99.90;;;;;;4988870;28;20561;-83
2023/08/01 12:52:47;;;;;;;15.87;15.37;;;21.40;99.90;;;;;;4990700;28;20905;-80
2023/08/01 12:55:15;;;;;;;16.60;15.80;;;21.50;99.90;;;;;;4990159;28;20442;-80
2023/08/01 12:57:46;;;;;;;15.93;15.33;;;21.50;99.90;;;;;;4991606;28;20897;-80
2023/08/01 13:00:24;;;;;;;15.83;15.33;;;21.50;99.90;;;;;;4992407;28;20460;-81
2023/08/01 13:03:00;;;;;;;15.83;15.33;;;21.50;99.90;;;;;;4989727;28;20517;-81
2023/08/01 13:05:52;;;;;;;15.47;14.87;;;21.60;99.90;;;;;;4991525;28;20497;-81
2023/08/01 13:09:14;;;;;;;15.37;14.87;;;21.60;99.90;;;;;;4993499;28;20451;-80
2023/08/01 13:11:45;;;;;;;16.20;15.70;;;21.60;99.90;;;;;;4975187;28;20471;-81
2023/08/01 13:14:29;;;;;;;15.20;14.80;;;21.60;99.90;;;;;;4994304;28;20489;-82
2023/08/01 13:17:43;;;;;;;14.83;14.23;;;21.60;99.90;;;;;;4988408;28;21268;-80